Data for 01/09/2006

Time Sea-Level Adjusted Pressure Absolute Pressure Temperature Relative Humidity Dew Point   
(mb) (inHg) (mb) (inHg) (C) (F) (%) (C) (F)
00:05 1024 30.24 853 25.19 -5.4 22.3 73 -9.5 14.9
00:10 1024 30.24 853 25.19 -5.6 21.9 74 -9.6 14.7
00:15 1024 30.24 853 25.19 -5.9 21.4 74 -9.7 14.5
00:20 1024 30.24 853 25.19 -5.8 21.5 75 -9.7 14.6
00:25 1024 30.24 853 25.19 -5.9 21.3 76 -9.6 14.8
00:30 1024 30.24 853 25.19 -5.9 21.4 76 -9.5 14.9
00:35 1024 30.24 853 25.19 -5.9 21.5 74 -9.8 14.3
00:40 1024 30.24 853 25.19 -7.2 19.1 80 -10 14
00:45 1024 30.24 853 25.19 -6.9 19.6 78 -10 13.9
00:50 1024 30.24 853 25.19 -7 19.4 79 -10 14
00:55 1024 30.24 853 25.19 -6.8 19.7 79 -9.9 14.2
01:00 1024 30.24 853 25.19 -6.7 20 79 -9.7 14.5
01:05 1024 30.24 853 25.19 -6.3 20.7 76 -9.8 14.3
01:10 1024 30.24 853 25.19 -6 21.1 76 -9.7 14.6
01:15 1024 30.24 853 25.19 -7.1 19.3 80 -10 14.1
01:20 1024 30.24 853 25.19 -7.3 18.9 81 -10.1 13.9
01:25 1024 30.24 853 25.19 -6.3 20.6 78 -9.6 14.8
01:30 1024 30.24 853 25.19 -6 21.1 76 -9.7 14.6
01:35 1024 30.24 853 25.19 -6.4 20.4 77 -9.8 14.3
01:40 1024 30.24 853 25.19 -6.5 20.2 78 -9.8 14.3
01:45 1024 30.24 853 25.19 -6.1 21.1 76 -9.7 14.5
01:50 1024 30.24 853 25.19 -6 21.2 76 -9.5 14.9
01:55 1024 30.24 853 25.19 -6.2 20.9 77 -9.6 14.8
02:00 1024 30.24 853 25.19 -6.1 21 76 -9.7 14.6
02:05 1024 30.24 853 25.19 -6 21.3 72 -10.2 13.6
02:10 1024 30.24 853 25.19 -7.4 18.6 80 -10.4 13.3
02:15 1024 30.24 853 25.19 -8 17.6 84 -10.3 13.5
02:20 1024 30.24 853 25.19 -7.1 19.2 81 -9.8 14.4
02:25 1024 30.24 853 25.19 -7 19.5 79 -10.1 13.8
02:30 1024 30.24 853 25.19 -7.4 18.6 79 -10.5 13.2
02:35 1024 30.24 853 25.19 -7.4 18.6 79 -10.4 13.2
02:40 1024 30.24 853 25.19 -7 19.4 78 -10.3 13.5
02:45 1024 30.24 853 25.19 -6.6 20.1 75 -10.3 13.4
02:50 1024 30.24 853 25.19 -7.1 19.2 76 -10.7 12.7
02:55 1024 30.24 853 25.19 -7.8 17.9 79 -10.9 12.4
03:00 1024 30.24 853 25.19 -8 17.5 84 -10.3 13.5
03:05 1024 30.24 853 25.19 -8.1 17.4 83 -10.5 13
03:10 1024 30.24 853 25.19 -7.8 17.9 83 -10.2 13.6
03:15 1024 30.24 853 25.19 -7.4 18.7 76 -10.9 12.4
03:20 1024 30.24 853 25.19 -7.4 18.6 76 -10.9 12.4
03:25 1024 30.24 853 25.19 -7.4 18.6 79 -10.6 13
03:30 1024 30.24 853 25.19 -7.4 18.7 78 -10.6 12.9
03:35 1024 30.24 853 25.19 -7.3 18.8 78 -10.5 13
03:40 1023 30.21 853 25.19 -6.9 19.5 75 -10.7 12.8
03:45 1023 30.21 853 25.19 -7.1 19.3 77 -10.4 13.3
03:50 1023 30.21 853 25.19 -6.6 20.1 72 -10.9 12.4
03:55 1023 30.21 853 25.19 -6.7 20 71 -11 12.1
04:00 1023 30.21 853 25.19 -7.1 19.1 75 -10.8 12.6
04:05 1023 30.21 853 25.19 -7.8 18 78 -11 12.3
04:10 1023 30.21 853 25.19 -8.2 17.2 78 -11.3 11.6
04:15 1023 30.21 853 25.19 -8.4 16.9 79 -11.4 11.4
04:20 1023 30.21 853 25.19 -8.4 16.8 79 -11.5 11.3
04:25 1023 30.21 853 25.19 -8.8 16.3 80 -11.6 11.1
04:30 1024 30.24 853 25.19 -8.7 16.4 80 -11.6 11.2
04:35 1023 30.21 853 25.19 -8.7 16.4 81 -11.4 11.5
04:40 1023 30.21 853 25.19 -8.5 16.6 80 -11.4 11.4
04:45 1023 30.21 853 25.19 -8.6 16.5 82 -11.2 11.8
04:50 1023 30.21 852 25.16 -8.5 16.6 80 -11.4 11.5
04:55 1023 30.21 852 25.16 -8.7 16.4 81 -11.4 11.4
05:00 1023 30.21 852 25.16 -8.7 16.4 80 -11.5 11.3
05:05 1023 30.21 852 25.16 -8.7 16.3 80 -11.6 11.1
05:10 1023 30.21 852 25.16 -8.9 15.9 80 -11.8 10.8
05:15 1023 30.21 852 25.16 -9.3 15.3 82 -11.8 10.7
05:20 1023 30.21 852 25.16 -9.1 15.6 80 -11.9 10.6
05:25 1023 30.21 852 25.16 -8.9 15.9 80 -11.8 10.8
05:30 1023 30.21 852 25.16 -8.9 15.9 80 -11.8 10.8
05:35 1023 30.21 852 25.16 -9.1 15.7 81 -11.7 10.9
05:40 1023 30.21 852 25.16 -9 15.8 81 -11.8 10.8
05:45 1023 30.21 852 25.16 -9.3 15.3 82 -11.8 10.7
05:50 1023 30.21 852 25.16 -9.6 14.8 83 -12 10.5
05:55 1023 30.21 852 25.16 -9.5 15 82 -11.9 10.5
06:00 1023 30.21 852 25.16 -9.5 14.9 83 -11.9 10.5
06:05 1023 30.21 852 25.16 -9.6 14.7 83 -12 10.5
06:10 1023 30.21 852 25.16 -9.7 14.5 83 -12.1 10.3
06:15 1023 30.21 852 25.16 -9.7 14.5 84 -11.9 10.6
06:20 1023 30.21 852 25.16 -9.3 15.2 84 -11.6 11.2
06:25 1023 30.21 852 25.16 -9.1 15.5 82 -11.6 11.1
06:30 1023 30.21 852 25.16 -9.3 15.3 82 -11.8 10.8
06:35 1022 30.18 852 25.16 -9.4 15.2 82 -11.9 10.6
06:40 1022 30.18 852 25.16 -9.3 15.2 84 -11.6 11.2
06:45 1022 30.18 851 25.13 -9.1 15.7 83 -11.5 11.3
06:50 1022 30.18 851 25.13 -9.1 15.6 82 -11.6 11.1
06:55 1022 30.18 851 25.13 -9.3 15.3 83 -11.6 11.1
07:00 1022 30.18 851 25.13 -9.3 15.3 83 -11.6 11.1
07:05 1022 30.18 851 25.13 -9.4 15.1 84 -11.6 11.1
07:10 1022 30.18 851 25.13 -9.5 15 84 -11.7 11
07:15 1022 30.18 851 25.13 -9.3 15.3 84 -11.5 11.2
07:20 1022 30.18 851 25.13 -9 15.8 82 -11.5 11.4
07:25 1022 30.18 851 25.13 -9.2 15.4 83 -11.5 11.2
07:30 1022 30.18 851 25.13 -9.2 15.5 83 -11.5 11.3
07:35 1022 30.18 851 25.13 -9 15.9 82 -11.4 11.4
07:40 1022 30.18 851 25.13 -8.8 16.2 82 -11.3 11.6
07:45 1022 30.18 851 25.13 -8.9 16 83 -11.2 11.8
07:50 1022 30.18 851 25.13 -8.7 16.4 82 -11.2 11.8
07:55 1022 30.18 851 25.13 -8.5 16.7 83 -10.9 12.4
08:00 1022 30.18 851 25.13 -8.3 17.1 83 -10.7 12.7
08:05 1022 30.18 851 25.13 -8.5 16.6 82 -11.1 12.1
08:10 1022 30.18 851 25.13 -9.4 15.1 86 -11.3 11.6
08:15 1022 30.18 851 25.13 -9.5 14.8 86 -11.5 11.3
08:20 1022 30.18 851 25.13 -9.2 15.4 83 -11.5 11.2
08:25 1022 30.18 851 25.13 -9 15.9 82 -11.5 11.4
08:30 1022 30.18 851 25.13 -8.4 16.9 77 -11.7 10.9
08:35 1022 30.18 851 25.13 -8.5 16.8 80 -11.3 11.7
08:40 1022 30.18 851 25.13 -9 15.8 81 -11.7 10.9
08:45 1022 30.18 851 25.13 -9.6 14.7 82 -12.2 10.1
08:50 1022 30.18 851 25.13 -9.5 14.9 81 -12.2 10
08:55 1022 30.18 852 25.16 -9.7 14.6 81 -12.4 9.8
09:00 1022 30.18 851 25.13 -9.4 15.1 78 -12.6 9.4
09:05 1022 30.18 851 25.13 -9.5 14.9 80 -12.4 9.7
09:10 1022 30.18 851 25.13 -9.4 15.1 80 -12.2 10
09:15 1022 30.18 851 25.13 -8.5 16.8 78 -11.7 10.9
09:20 1022 30.18 852 25.16 -7.8 18 73 -11.8 10.7
09:25 1022 30.18 851 25.13 -7.8 18 75 -11.4 11.5
09:30 1022 30.18 851 25.13 -7.5 18.5 75 -11.3 11.7
09:35 1022 30.18 851 25.13 -7.1 19.3 74 -11 12.1
09:40 1022 30.18 851 25.13 -6.4 20.4 72 -10.7 12.8
09:45 1022 30.18 852 25.16 -5.7 21.8 67 -10.9 12.5
09:50 1022 30.18 852 25.16 -6 21.1 69 -10.9 12.4
09:55 1022 30.18 851 25.13 -6.9 19.6 74 -10.8 12.6
10:00 1022 30.18 852 25.16 -6.8 19.8 73 -10.9 12.4
10:05 1022 30.18 852 25.16 -6.7 20 71 -11 12.1
10:10 1022 30.18 852 25.16 -6.2 20.9 70 -10.8 12.6
10:15 1022 30.18 852 25.16 -5.3 22.4 67 -10.4 13.2
10:20 1022 30.18 851 25.13 -5.5 22.1 70 -10.2 13.6
10:25 1022 30.18 851 25.13 -5.6 21.9 70 -10.2 13.6
10:30 1022 30.18 851 25.13 -5.4 22.3 69 -10.3 13.5
10:35 1022 30.18 851 25.13 -5.8 21.6 70 -10.5 13.1
10:40 1022 30.18 851 25.13 -5.6 21.9 70 -10.3 13.4
10:45 1022 30.18 851 25.13 -4.8 23.4 65 -10.3 13.4
10:50 1022 30.18 851 25.13 -4.2 24.5 65 -9.8 14.4
10:55 1022 30.18 851 25.13 -4.1 24.6 64 -9.9 14.3
11:00 1022 30.18 851 25.13 -3.1 26.4 59 -10.1 13.8
11:05 1022 30.18 851 25.13 -2.3 27.9 59 -9.3 15.2
11:10 1022 30.18 851 25.13 -2.4 27.7 58 -9.6 14.7
11:15 1022 30.18 851 25.13 -1.4 29.4 55 -9.4 15
11:20 1022 30.18 851 25.13 -0.7 30.7 53 -9.1 15.7
11:25 1022 30.18 851 25.13 -0.6 31 54 -8.7 16.3
11:30 1022 30.18 851 25.13 -0.9 30.5 54 -9 15.8
11:35 1022 30.18 851 25.13 -0.7 30.7 52 -9.4 15.1
11:40 1022 30.18 851 25.13 -1 30.2 56 -8.7 16.3
11:45 1022 30.18 851 25.13 -0.8 30.6 55 -8.8 16.1
11:50 1021 30.15 851 25.13 0 32 53 -8.4 16.8
11:55 1021 30.15 850 25.1 0.2 32.4 54 -8.2 17.3
12:00 1021 30.15 850 25.1 -0 31.9 55 -8.1 17.4
12:05 1021 30.15 850 25.1 -0.7 30.7 55 -8.7 16.3
12:10 1021 30.15 850 25.1 -0.3 31.5 52 -8.9 15.9
12:15 1021 30.15 850 25.1 -0.9 30.4 54 -9.2 15.5
12:20 1021 30.15 850 25.1 -1.3 29.7 55 -9.2 15.4
12:25 1021 30.15 850 25.1 -1.1 30.1 54 -9.3 15.3
12:30 1021 30.15 850 25.1 -1.3 29.7 55 -9.1 15.6
12:35 1020 30.12 850 25.1 -1.6 29 55 -9.5 14.9
12:40 1020 30.12 850 25.1 -1.3 29.7 55 -9.2 15.5
12:45 1020 30.12 849 25.07 -0.6 30.9 50 -9.8 14.3
12:50 1020 30.12 849 25.07 -0.3 31.4 51 -9.3 15.3
12:55 1020 30.12 849 25.07 -0.6 31 48 -10.3 13.4
13:00 1020 30.12 849 25.07 -0.9 30.4 49 -10.2 13.6
13:05 1020 30.12 849 25.07 -1 30.2 49 -10.5 13.2
13:10 1020 30.12 849 25.07 -1.1 30.1 50 -10.3 13.5
13:15 1020 30.12 849 25.07 -0.9 30.4 51 -9.9 14.2
13:20 1020 30.12 849 25.07 -0.2 31.6 51 -9.3 15.2
13:25 1020 30.12 849 25.07 0.3 32.5 50 -8.9 16
13:30 1020 30.12 849 25.07 0.4 32.7 52 -8.3 17.1
13:35 1020 30.12 849 25.07 0.5 32.9 52 -8.3 17.1
13:40 1020 30.12 849 25.07 -0.1 31.9 55 -8.2 17.3
13:45 1020 30.12 849 25.07 -1.3 29.7 57 -8.7 16.3
13:50 1020 30.12 849 25.07 -1.4 29.5 57 -8.8 16.2
13:55 1020 30.12 849 25.07 -0.5 31.2 54 -8.7 16.3
14:00 1020 30.12 849 25.07 0.1 32.1 50 -9.1 15.6
14:05 1020 30.12 849 25.07 -0.4 31.2 51 -9.5 14.9
14:10 1020 30.12 849 25.07 -0.8 30.5 53 -9.2 15.5
14:15 1019 30.09 849 25.07 -1.3 29.7 54 -9.4 15
14:20 1019 30.09 848 25.04 -0.7 30.7 51 -9.7 14.6
14:25 1019 30.09 848 25.04 -0.9 30.3 53 -9.4 15
14:30 1019 30.09 848 25.04 -1.5 29.3 54 -9.7 14.5
14:35 1019 30.09 848 25.04 -1.5 29.3 54 -9.5 14.9
14:40 1019 30.09 848 25.04 -1.5 29.4 54 -9.7 14.6
14:45 1019 30.09 848 25.04 -1.4 29.5 50 -10.4 13.3
14:50 1019 30.09 848 25.04 -1.2 29.8 51 -10 14
14:55 1019 30.09 848 25.04 -0.8 30.5 51 -9.7 14.6
15:00 1019 30.09 848 25.04 -0.6 30.9 52 -9.2 15.4
15:05 1019 30.09 848 25.04 -0.5 31.2 51 -9.4 15.1
15:10 1019 30.09 848 25.04 -0.4 31.3 52 -9.2 15.5
15:15 1019 30.09 848 25.04 -0.1 31.8 51 -9.1 15.5
15:20 1019 30.09 848 25.04 0 32.1 51 -9 15.8
15:25 1019 30.09 848 25.04 0.2 32.3 49 -9.3 15.2
15:30 1019 30.09 848 25.04 -0.1 31.8 52 -8.9 15.9
15:35 1019 30.09 849 25.07 -0.2 31.7 55 -8.1 17.4
15:40 1019 30.09 849 25.07 0.3 32.5 50 -8.9 16
15:45 1019 30.09 848 25.04 1 33.8 48 -8.9 16
15:50 1019 30.09 848 25.04 1.6 34.8 44 -9.4 15
15:55 1019 30.09 849 25.07 1.9 35.4 43 -9.3 15.2
16:00 1019 30.09 849 25.07 1.9 35.4 46 -8.4 16.8
16:05 1019 30.09 849 25.07 1.4 34.6 49 -8.2 17.2
16:10 1019 30.09 849 25.07 0.6 33.1 51 -8.3 17.1
16:15 1019 30.09 849 25.07 -0.3 31.4 54 -8.6 16.4
16:20 1019 30.09 849 25.07 -1.2 29.8 53 -9.6 14.7
16:25 1019 30.09 848 25.04 -1.5 29.3 54 -9.7 14.6
16:30 1019 30.09 849 25.07 -1.4 29.5 55 -9.4 15.1
16:35 1019 30.09 849 25.07 -1.1 29.9 54 -9.3 15.3
16:40 1019 30.09 848 25.04 -1.2 29.8 54 -9.5 15
16:45 1019 30.09 848 25.04 -1.5 29.3 57 -9 15.7
16:50 1019 30.09 848 25.04 -1.7 29 59 -8.7 16.3
16:55 1019 30.09 848 25.04 -1.4 29.5 51 -10.2 13.6
17:00 1019 30.09 848 25.04 -1.1 30 54 -9.3 15.3
17:05 1019 30.09 848 25.04 -1 30.3 55 -8.9 15.9
17:10 1019 30.09 848 25.04 -1 30.3 54 -9.1 15.6
17:15 1019 30.09 848 25.04 -1 30.1 53 -9.5 15
17:20 1019 30.09 848 25.04 -1.3 29.7 54 -9.4 15.1
17:25 1019 30.09 848 25.04 -1.4 29.5 53 -9.8 14.3
17:30 1019 30.09 848 25.04 -1.3 29.7 53 -9.5 14.8
17:35 1019 30.09 848 25.04 -1.6 29 59 -8.7 16.4
17:40 1019 30.09 848 25.04 -2.4 27.8 61 -8.9 16
17:45 1019 30.09 848 25.04 -2.3 27.9 58 -9.5 14.9
17:50 1019 30.09 848 25.04 -2.4 27.8 60 -9.1 15.6
17:55 1019 30.09 848 25.04 -2.9 26.8 63 -9 15.8
18:00 1019 30.09 848 25.04 -3 26.7 61 -9.6 14.8
18:05 1019 30.09 848 25.04 -2.7 27.1 61 -9.2 15.4
18:10 1019 30.09 848 25.04 -2.5 27.4 60 -9.4 15.1
18:15 1019 30.09 848 25.04 -2.2 28 58 -9.3 15.2
18:20 1019 30.09 848 25.04 -2.3 27.9 61 -8.9 15.9
18:25 1019 30.09 848 25.04 -2.7 27.2 63 -8.9 16.1
18:30 1019 30.09 848 25.04 -2.9 26.8 65 -8.6 16.6
18:35 1019 30.09 848 25.04 -2.9 26.8 62 -9.2 15.5
18:40 1019 30.09 848 25.04 -2.6 27.3 60 -9.4 15.1
18:45 1019 30.09 848 25.04 -1.4 29.5 56 -9 15.7
18:50 1019 30.09 848 25.04 -0.3 31.4 52 -9 15.8
18:55 1019 30.09 848 25.04 1 33.8 50 -8.2 17.3
19:00 1019 30.09 848 25.04 0.5 32.9 56 -7.4 18.7
19:05 1018 30.06 848 25.04 -0.6 30.9 55 -8.5 16.7
19:10 1018 30.06 848 25.04 -0.9 30.3 56 -8.6 16.5
19:15 1018 30.06 848 25.04 -1 30.1 57 -8.4 16.8
19:20 1018 30.06 848 25.04 -1.1 30.1 60 -7.8 17.9
19:25 1018 30.06 848 25.04 -1.6 29.1 64 -7.6 18.4
19:30 1018 30.06 848 25.04 -2 28.4 66 -7.5 18.4
19:35 1018 30.06 847 25.01 -2.2 28 68 -7.4 18.7
19:40 1018 30.06 847 25.01 -2.2 28 69 -7.1 19.2
19:45 1018 30.06 847 25.01 -2.1 28.2 67 -7.5 18.5
19:50 1018 30.06 847 25.01 -1.7 29 65 -7.4 18.7
19:55 1018 30.06 847 25.01 -1.4 29.5 64 -7.3 18.9
20:00 1018 30.06 847 25.01 -1.1 30 61 -7.6 18.3
20:05 1018 30.06 847 25.01 -0.8 30.5 62 -7.2 19.1
20:10 1018 30.06 847 25.01 -1.1 30 65 -6.9 19.6
20:15 1018 30.06 847 25.01 -1.4 29.5 63 -7.5 18.5
20:20 1018 30.06 847 25.01 -0.9 30.4 61 -7.4 18.7
20:25 1018 30.06 847 25.01 -0.8 30.6 63 -6.9 19.5
20:30 1018 30.06 847 25.01 -1.5 29.4 67 -6.9 19.6
20:35 1018 30.06 847 25.01 -1.1 30.1 62 -7.4 18.7
20:40 1018 30.06 847 25.01 -0.4 31.2 54 -8.6 16.5
20:45 1018 30.06 847 25.01 0.6 33.1 52 -8.3 17.1
20:50 1018 30.06 847 25.01 1.4 34.5 48 -8.5 16.7
20:55 1018 30.06 847 25.01 2.2 36 46 -8.1 17.4
21:00 1018 30.06 847 25.01 2.4 36.3 45 -8.3 17
21:05 1018 30.06 847 25.01 2.3 36.1 47 -7.8 18
21:10 1018 30.06 847 25.01 1.4 34.6 47 -8.6 16.5
21:15 1018 30.06 847 25.01 2 35.6 47 -8.3 17
21:20 1018 30.06 847 25.01 2.2 36 46 -8.3 17
21:25 1018 30.06 847 25.01 1.4 34.5 54 -6.9 19.6
21:30 1018 30.06 847 25.01 -0.6 31 60 -7.5 18.6
21:35 1018 30.06 847 25.01 -0.4 31.3 58 -7.8 18
21:40 1017 30.03 847 25.01 -0.1 31.7 57 -7.6 18.2
21:45 1017 30.03 847 25.01 0.4 32.8 50 -8.8 16.2
21:50 1017 30.03 847 25.01 0.9 33.6 55 -7.2 19
21:55 1017 30.03 847 25.01 0.9 33.6 53 -7.8 18
22:00 1017 30.03 846 24.98 0.9 33.6 53 -7.7 18.1
22:05 1017 30.03 846 24.98 1.1 34 52 -7.7 18.2
22:10 1017 30.03 846 24.98 1.3 34.4 51 -7.8 18
22:15 1017 30.03 847 25.01 1.6 34.9 50 -7.8 18
22:20 1017 30.03 846 24.98 1.8 35.2 50 -7.5 18.5
22:25 1017 30.03 846 24.98 1.6 34.9 53 -6.9 19.5
22:30 1017 30.03 846 24.98 0.4 32.8 59 -6.7 19.9
22:35 1017 30.03 847 25.01 0.2 32.4 55 -7.7 18.1
22:40 1017 30.03 847 25.01 1.1 33.9 53 -7.4 18.6
22:45 1017 30.03 847 25.01 1.3 34.4 53 -7.2 19.1
22:50 1017 30.03 847 25.01 1.3 34.4 52 -7.4 18.7
22:55 1018 30.06 847 25.01 1.4 34.5 53 -7.1 19.2
23:00 1018 30.06 847 25.01 1.2 34.2 55 -6.8 19.7
23:05 1018 30.06 847 25.01 1.1 33.9 54 -7.3 18.9
23:10 1018 30.06 847 25.01 1 33.8 55 -7.2 19.1
23:15 1018 30.06 847 25.01 1.2 34.1 54 -7.2 19.1
23:20 1018 30.06 847 25.01 1.1 34 55 -6.9 19.6
23:25 1018 30.06 847 25.01 1 33.7 55 -7.1 19.2
23:30 1018 30.06 847 25.01 1 33.8 55 -7.1 19.2
23:35 1018 30.06 847 25.01 1.3 34.4 53 -7.2 19.1
23:40 1018 30.06 847 25.01 1.4 34.5 55 -6.8 19.8
23:45 1018 30.06 847 25.01 0.7 33.2 62 -5.9 21.5
23:50 1018 30.06 847 25.01 -0.3 31.5 61 -6.9 19.5
23:55 1018 30.06 847 25.01 -0.4 31.4 60 -7.3 18.9
24:00 1017 30.03 847 25.01 -0.2 31.7 59 -7.3 18.8